Time;durP1;ratioP1;P1;durP2;ratioP2;P2;SDS_P1;SDS_P2;PMS_P1;PMS_P2;Temp;Humidity;BMP_temperature;BMP_pressure;BME280_temperature;BME280_humidity;BME280_pressure;Samples;Min_cycle;Max_cycle;Signal;HPM_P1;HPM_P2
2024/04/17 00:02:04;;;;;;;12.35;4.75;;;;;;;15.97;85.40;92225.69;3634533;31;20145;-40
2024/04/17 00:04:31;;;;;;;9.45;5.80;;;;;;;15.90;84.69;92218.09;3698235;31;20184;-40
2024/04/17 00:06:58;;;;;;;9.45;5.25;;;;;;;15.88;84.47;92211.44;3632580;31;20193;-42
2024/04/17 00:09:25;;;;;;;9.82;5.50;;;;;;;15.85;85.17;92210.19;3633094;31;20185;-40
2024/04/17 00:11:52;;;;;;;10.68;6.70;;;;;;;15.79;85.43;92199.88;3631675;31;20133;-43
2024/04/17 00:14:20;;;;;;;10.82;6.88;;;;;;;15.39;87.68;92200.72;3697674;32;20129;-43
2024/04/17 00:16:47;;;;;;;10.52;7.38;;;;;;;15.39;87.49;92197.28;3629046;32;20148;-41
2024/04/17 00:19:14;;;;;;;12.82;7.65;;;;;;;15.13;88.38;92194.47;3629769;31;20172;-41
2024/04/17 00:21:41;;;;;;;9.30;6.93;;;;;;;15.19;88.16;92180.63;3687549;31;20140;-40
2024/04/17 00:24:08;;;;;;;10.50;6.50;;;;;;;15.26;87.75;92172.91;3659972;32;20142;-41
2024/04/17 00:26:35;;;;;;;9.82;6.03;;;;;;;15.29;86.80;92166.13;3639561;31;20152;-40
2024/04/17 00:29:02;;;;;;;11.50;6.88;;;;;;;14.99;88.47;92173.13;3687642;31;20193;-41
2024/04/17 00:31:29;;;;;;;8.77;6.43;;;;;;;15.02;88.65;92173.31;3706546;31;20148;-40
2024/04/17 00:33:57;;;;;;;11.73;6.88;;;;;;;15.07;88.49;92175.06;3644585;31;20129;-41
2024/04/17 00:36:24;;;;;;;13.40;8.00;;;;;;;15.15;86.69;92162.75;3671057;31;20138;-40
2024/04/17 00:38:51;;;;;;;10.07;6.47;;;;;;;15.15;85.88;92160.88;3655663;31;20145;-41
2024/04/17 00:41:18;;;;;;;10.43;6.80;;;;;;;15.16;85.54;92151.72;3640319;31;20185;-40
2024/04/17 00:43:45;;;;;;;8.80;5.72;;;;;;;15.14;85.53;92159.28;3662560;31;20133;-41
2024/04/17 00:46:13;;;;;;;9.52;7.72;;;;;;;14.97;87.01;92148.50;3651559;31;20133;-41
2024/04/17 00:48:40;;;;;;;15.85;5.60;;;;;;;14.99;86.84;92155.13;3669855;31;20129;-40
2024/04/17 00:51:07;;;;;;;11.50;7.50;;;;;;;15.01;86.43;92152.16;3715362;31;20138;-40
2024/04/17 00:53:37;;;;;;;13.13;6.38;;;;;;;14.97;86.56;92154.66;3684602;31;20134;-41
2024/04/17 00:56:05;;;;;;;7.43;4.30;;;;;;;14.85;86.40;92154.44;3628366;32;20470;-40
2024/04/17 00:58:34;;;;;;;7.65;5.68;;;;;;;14.87;86.44;92136.97;3626742;31;20474;-41
2024/04/17 01:01:01;;;;;;;10.68;6.10;;;;;;;14.82;86.97;92134.41;3638778;31;20137;-41
2024/04/17 01:03:28;;;;;;;10.95;6.57;;;;;;;14.66;87.01;92126.00;3669778;31;20134;-40
2024/04/17 01:05:57;;;;;;;10.05;7.50;;;;;;;14.72;87.58;92125.84;3680451;31;20137;-43
2024/04/17 01:08:24;;;;;;;12.98;7.30;;;;;;;14.77;86.16;92121.16;3624519;31;20133;-40
2024/04/17 01:11:01;;;;;;;10.13;6.60;;;;;;;14.74;86.67;92120.97;3686147;31;20134;-40
2024/04/17 01:13:47;;;;;;;9.68;5.70;;;;;;;14.76;84.45;92118.75;3637415;31;20137;-40
2024/04/17 01:16:14;;;;;;;11.50;5.75;;;;;;;14.69;83.88;92113.84;3686847;31;20169;-40
2024/04/17 01:18:56;;;;;;;8.73;5.60;;;;;;;14.65;84.68;92121.72;3651966;31;20464;-40
2024/04/17 01:21:23;;;;;;;11.00;6.72;;;;;;;14.66;85.18;92128.69;3663361;31;20133;-40
2024/04/17 01:23:55;;;;;;;8.40;4.95;;;;;;;14.61;85.26;92136.06;3630118;32;20133;-40
2024/04/17 01:26:23;;;;;;;8.98;6.15;;;;;;;14.64;83.99;92119.38;3640545;31;20572;-40
2024/04/17 01:28:50;;;;;;;12.13;5.72;;;;;;;14.60;84.69;92123.75;3646873;31;20130;-41
2024/04/17 01:31:36;;;;;;;8.95;5.68;;;;;;;14.63;84.58;92120.44;3657311;31;20141;-40
2024/04/17 01:34:03;;;;;;;8.60;6.78;;;;;;;14.54;84.18;92125.75;3632027;31;20133;-41
2024/04/17 01:36:30;;;;;;;9.90;6.63;;;;;;;14.56;84.90;92128.94;3701784;31;20121;-40
2024/04/17 01:38:57;;;;;;;11.13;6.00;;;;;;;14.58;84.61;92126.75;3670302;31;20137;-40
2024/04/17 01:41:24;;;;;;;11.32;6.63;;;;;;;14.49;83.15;92118.63;3672122;31;20126;-40
2024/04/17 01:43:52;;;;;;;9.43;5.78;;;;;;;14.40;83.83;92107.09;3693289;31;20130;-40
2024/04/17 01:46:19;;;;;;;10.48;7.03;;;;;;;14.38;83.55;92106.59;3665266;31;20158;-41
2024/04/17 01:48:46;;;;;;;10.18;5.90;;;;;;;14.29;84.43;92103.06;3690948;31;20153;-40
2024/04/17 01:51:13;;;;;;;11.20;9.90;;;;;;;14.16;86.90;92095.91;3638105;31;20141;-41
2024/04/17 01:53:40;;;;;;;12.70;7.93;;;;;;;13.66;89.22;92104.88;3678775;31;20177;-40
2024/04/17 01:56:07;;;;;;;13.43;7.60;;;;;;;13.72;88.46;92103.66;3673216;31;20432;-41
2024/04/17 01:58:34;;;;;;;11.23;8.43;;;;;;;13.85;87.91;92099.34;3685977;31;20141;-40
2024/04/17 02:01:05;;;;;;;12.88;7.43;;;;;;;13.92;87.56;92099.69;3636023;31;20122;-41
2024/04/17 02:03:36;;;;;;;13.27;8.07;;;;;;;13.99;87.34;92088.56;3651455;31;20560;-40
2024/04/17 02:06:04;;;;;;;10.00;6.88;;;;;;;14.00;86.65;92077.53;3668314;31;20146;-40
2024/04/17 02:08:31;;;;;;;11.48;7.70;;;;;;;14.03;86.06;92076.13;3659564;31;20180;-40
2024/04/17 02:10:58;;;;;;;9.35;6.72;;;;;;;13.93;86.67;92071.81;3639812;32;20133;-40
2024/04/17 02:13:25;;;;;;;10.13;7.85;;;;;;;13.97;87.18;92063.97;3680882;31;20156;-40
2024/04/17 02:15:52;;;;;;;12.38;8.13;;;;;;;14.01;87.02;92065.72;3628666;32;20137;-40
2024/04/17 02:18:20;;;;;;;10.65;8.10;;;;;;;14.05;86.96;92066.69;3665114;31;20130;-40
2024/04/17 02:21:06;;;;;;;9.20;5.55;;;;;;;13.97;85.21;92058.59;3680130;31;20496;-40
2024/04/17 02:23:33;;;;;;;8.25;4.40;;;;;;;13.85;85.91;92048.47;3678117;31;20522;-39
2024/04/17 02:26:00;;;;;;;9.55;6.75;;;;;;;13.88;86.11;92040.59;3665021;31;20122;-40
2024/04/17 02:28:27;;;;;;;10.20;6.78;;;;;;;13.65;88.12;92025.66;3621721;39;20500;-40
2024/04/17 02:30:54;;;;;;;11.27;7.95;;;;;;;13.63;87.70;92020.63;3679830;31;20145;-40
2024/04/17 02:33:21;;;;;;;12.13;6.55;;;;;;;13.67;87.65;92016.22;3669649;32;20138;-40
2024/04/17 02:35:48;;;;;;;14.45;6.22;;;;;;;13.58;87.76;92012.69;3714034;31;20138;-40
2024/04/17 02:38:28;;;;;;;11.75;9.63;;;;;;;13.61;87.20;92011.28;3670787;31;20133;-40
2024/04/17 02:40:59;;;;;;;12.52;8.65;;;;;;;13.66;86.48;92011.97;3621756;39;20133;-40
2024/04/17 02:43:26;;;;;;;13.45;8.43;;;;;;;13.62;85.95;92015.56;3677086;31;20142;-40
2024/04/17 02:45:54;;;;;;;8.98;6.28;;;;;;;13.58;85.80;92004.66;3670561;31;20145;-41
2024/04/17 02:48:21;;;;;;;10.27;6.63;;;;;;;13.57;86.63;92002.28;3664090;31;20141;-40
2024/04/17 02:50:48;;;;;;;10.80;6.90;;;;;;;13.61;87.02;91988.00;3672829;31;20138;-41
2024/04/17 02:53:15;;;;;;;8.80;5.88;;;;;;;13.52;86.92;91995.19;3685940;31;20220;-40
2024/04/17 02:58:45;;;;;;;8.82;4.35;;;;;;;13.50;87.78;91994.69;3647408;39;20169;-40
2024/04/17 03:01:13;;;;;;;9.30;4.25;;;;;;;13.51;87.41;91985.59;3697131;31;20276;-40
2024/04/17 03:03:41;;;;;;;11.05;4.20;;;;;;;13.54;85.85;91982.28;3664332;31;20137;-41
2024/04/17 03:06:08;;;;;;;11.35;4.43;;;;;;;13.36;86.36;91994.78;3685860;31;20130;-40
2024/04/17 03:08:35;;;;;;;10.23;4.32;;;;;;;13.39;86.85;91991.47;3712227;31;20570;-40
2024/04/17 03:11:02;;;;;;;9.45;4.13;;;;;;;13.47;85.67;91984.59;3724340;31;20125;-41
2024/04/17 03:13:30;;;;;;;8.95;4.47;;;;;;;13.48;86.25;91989.66;3648601;31;20133;-40
2024/04/17 03:16:03;;;;;;;10.65;5.05;;;;;;;13.47;86.56;91998.78;3695162;31;20460;-40
2024/04/17 03:18:30;;;;;;;7.68;4.13;;;;;;;13.50;85.70;92002.72;3644441;32;20137;-40
2024/04/17 03:21:01;;;;;;;9.55;5.00;;;;;;;13.52;85.66;92002.41;3647917;31;20129;-40
2024/04/17 03:23:29;;;;;;;8.30;4.20;;;;;;;13.47;85.97;92006.81;3697105;31;20169;-40
2024/04/17 03:26:00;;;;;;;10.18;4.50;;;;;;;13.42;86.80;92004.25;3660862;31;20133;-40
2024/04/17 03:28:27;;;;;;;10.05;4.90;;;;;;;13.42;86.83;92004.25;3667909;31;20188;-44
2024/04/17 03:30:59;;;;;;;9.32;4.65;;;;;;;13.33;86.41;91998.03;3698283;31;20125;-40
2024/04/17 03:33:26;;;;;;;17.75;6.35;;;;;;;13.40;86.18;91989.56;3641359;31;20571;-40
2024/04/17 03:35:57;;;;;;;10.88;5.97;;;;;;;13.44;85.79;91991.38;3668762;31;20138;-40
2024/04/17 03:38:46;;;;;;;8.38;5.00;;;;;;;13.19;88.38;91998.06;3713998;31;20180;-40
2024/04/17 03:41:13;;;;;;;12.98;6.05;;;;;;;13.26;87.43;91993.09;3660096;31;20131;-39
2024/04/17 03:43:40;;;;;;;10.13;5.57;;;;;;;13.26;87.39;91990.41;3631491;32;20141;-39
2024/04/17 03:46:08;;;;;;;12.05;5.13;;;;;;;13.26;88.48;91976.25;3685667;31;20188;-39
2024/04/17 03:48:35;;;;;;;9.73;5.15;;;;;;;13.18;89.09;91979.66;3713162;31;20177;-42
2024/04/17 03:51:02;;;;;;;12.75;7.63;;;;;;;13.10;91.31;91991.06;3717228;31;20132;-39
2024/04/17 03:53:29;;;;;;;11.25;6.82;;;;;;;13.18;91.17;91999.16;3687065;31;20156;-40
2024/04/17 03:55:56;;;;;;;11.75;7.15;;;;;;;13.19;92.31;91990.06;3693167;31;20559;-40
2024/04/17 03:58:23;;;;;;;12.18;7.00;;;;;;;13.19;91.93;91998.06;3635079;32;20141;-42
2024/04/17 04:00:50;;;;;;;11.23;6.07;;;;;;;12.86;93.29;91992.91;3638200;31;20243;-41
2024/04/17 04:03:17;;;;;;;12.68;5.75;;;;;;;12.97;91.81;91998.84;3689678;31;20129;-40
2024/04/17 04:05:44;;;;;;;8.68;4.80;;;;;;;13.10;91.45;92002.56;3675458;31;20189;-39
2024/04/17 04:08:12;;;;;;;11.30;5.90;;;;;;;13.14;92.08;91987.47;3661973;31;20141;-42
2024/04/17 04:10:39;;;;;;;10.85;5.63;;;;;;;13.27;93.42;91994.69;3695696;31;20134;-39
2024/04/17 04:13:06;;;;;;;14.13;6.38;;;;;;;13.35;93.70;91993.16;3625566;31;20134;-39
2024/04/17 04:15:33;;;;;;;12.30;7.00;;;;;;;13.22;94.38;92005.47;3674194;31;20478;-42
2024/04/17 04:18:00;;;;;;;10.82;6.70;;;;;;;13.27;94.26;92002.69;3638033;32;20140;-40
2024/04/17 04:20:27;;;;;;;11.38;7.07;;;;;;;13.36;94.32;91993.97;3673427;32;20498;-40
2024/04/17 04:22:54;;;;;;;13.93;7.88;;;;;;;13.31;96.04;91994.88;3668356;31;20590;-40
2024/04/17 04:25:21;;;;;;;12.65;8.10;;;;;;;13.47;95.47;91984.59;3668708;31;20134;-40
2024/04/17 04:27:48;;;;;;;12.27;5.93;;;;;;;13.45;95.92;91992.94;3693077;31;20185;-41
2024/04/17 04:30:15;;;;;;;11.02;6.68;;;;;;;13.54;94.74;91981.50;3706956;31;20129;-43
2024/04/17 04:32:42;;;;;;;12.57;6.50;;;;;;;13.67;94.66;91989.44;3670826;31;20129;-40
2024/04/17 04:35:09;;;;;;;13.30;7.18;;;;;;;13.71;94.76;91981.59;3688943;31;20466;-39
2024/04/17 04:37:36;;;;;;;12.75;7.25;;;;;;;13.55;97.31;91991.09;3668845;31;20133;-41
2024/04/17 04:40:04;;;;;;;11.77;7.07;;;;;;;13.40;99.71;91985.03;3646966;31;20137;-41
2024/04/17 04:42:31;;;;;;;12.77;7.32;;;;;;;13.40;99.68;91986.91;3661876;31;20133;-41
2024/04/17 04:44:58;;;;;;;12.63;8.13;;;;;;;13.23;100.00;91985.69;3694338;31;20131;-40
2024/04/17 04:47:25;;;;;;;11.05;8.10;;;;;;;13.45;100.00;91976.09;3697752;32;20122;-41
2024/04/17 04:49:52;;;;;;;14.40;8.35;;;;;;;13.60;99.79;91983.75;3649908;31;20145;-40
2024/04/17 04:52:19;;;;;;;13.60;7.47;;;;;;;13.56;99.55;91987.34;3688561;31;20587;-40
2024/04/17 04:54:47;;;;;;;14.88;7.45;;;;;;;13.60;99.07;91983.75;3627780;31;20134;-40
2024/04/17 04:57:13;;;;;;;11.88;7.60;;;;;;;13.73;98.76;91989.34;3651262;31;20137;-40
2024/04/17 04:59:41;;;;;;;15.60;7.35;;;;;;;13.78;97.64;91981.16;3682631;31;20134;-41
2024/04/17 05:02:08;;;;;;;15.05;7.45;;;;;;;13.82;97.62;91984.81;3632891;32;20571;-41
2024/04/17 05:04:35;;;;;;;13.27;7.68;;;;;;;13.92;98.53;91989.13;3643109;31;20125;-40
2024/04/17 05:07:02;;;;;;;12.70;8.25;;;;;;;13.96;99.03;91984.72;3661238;31;20141;-42
2024/04/17 05:09:29;;;;;;;13.30;7.85;;;;;;;14.07;98.64;91994.84;3707760;31;20150;-41
2024/04/17 05:11:56;;;;;;;13.68;7.95;;;;;;;14.06;98.32;91977.22;3648860;32;20176;-41
2024/04/17 05:14:23;;;;;;;14.43;8.10;;;;;;;14.02;99.55;91968.22;3671375;31;20461;-41
2024/04/17 05:16:50;;;;;;;16.50;7.88;;;;;;;13.73;100.00;91963.34;3684429;31;20137;-41
2024/04/17 05:19:17;;;;;;;15.82;9.25;;;;;;;13.80;100.00;91962.91;3633496;31;20571;-41
2024/04/17 05:21:45;;;;;;;12.77;7.43;;;;;;;13.99;100.00;91968.81;3652603;31;20137;-43
2024/04/17 05:24:12;;;;;;;16.45;7.18;;;;;;;14.11;100.00;91965.56;3649943;31;20141;-41
2024/04/17 05:26:39;;;;;;;12.57;7.15;;;;;;;14.17;100.00;91942.13;3692326;31;20496;-42
2024/04/17 05:29:06;;;;;;;16.35;9.63;;;;;;;13.79;100.00;91945.28;3696336;32;20121;-42
2024/04/17 05:31:33;;;;;;;12.20;5.93;;;;;;;13.87;100.00;91960.59;3666528;32;20133;-41
2024/04/17 05:34:00;;;;;;;14.65;7.65;;;;;;;14.14;100.00;91959.56;3662269;31;20157;-42
2024/04/17 05:36:28;;;;;;;14.48;6.50;;;;;;;14.34;100.00;91960.09;3660804;31;20133;-41
2024/04/17 05:38:55;;;;;;;10.88;6.00;;;;;;;14.46;100.00;91957.63;3667650;31;20133;-42
2024/04/17 05:41:22;;;;;;;11.48;5.47;;;;;;;14.46;100.00;91961.09;3626274;32;20125;-42
2024/04/17 05:43:49;;;;;;;12.25;6.20;;;;;;;14.57;100.00;91960.84;3691625;31;20134;-41
2024/04/17 05:46:16;;;;;;;10.02;5.65;;;;;;;14.54;100.00;91954.19;3617709;32;20137;-41
2024/04/17 05:48:43;;;;;;;11.38;5.68;;;;;;;14.63;100.00;91956.91;3706431;32;20157;-42
2024/04/17 05:51:10;;;;;;;9.90;4.70;;;;;;;14.65;100.00;91960.84;3640081;31;20143;-42
2024/04/17 05:53:37;;;;;;;9.35;4.57;;;;;;;14.80;100.00;91943.53;3628454;32;20125;-44
2024/04/17 05:56:05;;;;;;;12.38;5.40;;;;;;;14.96;100.00;91951.13;3663990;31;20133;-41
2024/04/17 05:58:33;;;;;;;10.07;3.83;;;;;;;15.14;100.00;91951.91;3675682;31;20638;-41
2024/04/17 06:01:00;;;;;;;7.90;3.72;;;;;;;15.26;100.00;91963.59;3673033;31;20244;-41
2024/04/17 06:03:27;;;;;;;9.48;4.43;;;;;;;15.32;99.43;91966.91;3623572;31;20508;-43
2024/04/17 06:05:54;;;;;;;10.90;4.80;;;;;;;15.46;99.66;91974.78;3637815;31;20138;-41
2024/04/17 06:08:21;;;;;;;9.35;5.35;;;;;;;15.48;100.00;91981.41;3644460;31;20125;-42
2024/04/17 06:10:48;;;;;;;10.43;5.18;;;;;;;15.61;100.00;91970.81;3637917;31;20129;-41
2024/04/17 06:13:15;;;;;;;12.95;5.40;;;;;;;15.66;100.00;91974.13;3639616;31;20130;-42
2024/04/17 06:15:45;;;;;;;14.80;8.40;;;;;;;15.62;100.00;91967.81;3674762;31;20137;-42
2024/04/17 06:18:12;;;;;;;10.38;4.18;;;;;;;15.46;99.73;91972.88;3637204;31;20133;-41
2024/04/17 06:20:41;;;;;;;14.88;5.53;;;;;;;15.57;99.04;91965.28;3689545;31;20133;-42
2024/04/17 06:23:08;;;;;;;;;;;;;;;15.69;99.11;91960.03;3641322;31;20121;-42
2024/04/17 06:25:35;;;;;;;10.75;5.45;;;;;;;15.44;99.75;91960.88;3663579;31;20014;-41
2024/04/17 06:28:02;;;;;;;13.13;6.43;;;;;;;15.40;100.00;91955.34;3639940;31;20138;-41
2024/04/17 06:30:29;;;;;;;13.68;6.55;;;;;;;15.25;100.00;91951.25;3690662;31;20117;-41
2024/04/17 06:32:56;;;;;;;8.85;5.35;;;;;;;15.14;100.00;91947.31;3652057;31;20130;-40
2024/04/17 06:35:23;;;;;;;12.68;5.13;;;;;;;14.92;100.00;91948.28;3638221;31;20134;-40
2024/04/17 06:37:50;;;;;;;12.60;6.28;;;;;;;14.96;100.00;91959.94;3678616;31;20179;-41
2024/04/17 06:40:17;;;;;;;15.73;5.97;;;;;;;15.07;100.00;91953.16;3626440;31;20121;-42
2024/04/17 06:42:44;;;;;;;17.10;7.88;;;;;;;15.01;100.00;91954.41;3666804;31;20182;-41
2024/04/17 06:45:11;;;;;;;12.60;5.38;;;;;;;14.98;100.00;91963.13;3648499;32;20567;-40
2024/04/17 06:47:38;;;;;;;10.65;4.05;;;;;;;14.92;97.94;91950.19;3633151;31;20138;-40
2024/04/17 06:50:06;;;;;;;10.15;3.25;;;;;;;14.74;94.10;91922.53;3674424;31;20635;-40
2024/04/17 06:52:33;;;;;;;7.03;2.13;;;;;;;14.67;94.07;91923.00;3628891;31;20137;-40
2024/04/17 06:55:00;;;;;;;11.10;3.80;;;;;;;14.64;93.85;91929.00;3625087;31;20204;-41
2024/04/17 06:57:27;;;;;;;9.75;2.75;;;;;;;14.59;91.33;91913.06;3698321;31;20138;-41
2024/04/17 06:59:54;;;;;;;7.57;2.45;;;;;;;14.48;95.39;91909.84;3681276;31;20149;-41
2024/04/17 07:02:21;;;;;;;5.70;2.22;;;;;;;14.49;95.67;91932.91;3627247;31;20559;-41
2024/04/17 07:04:48;;;;;;;8.68;1.70;;;;;;;14.53;91.35;91925.00;3692104;31;20142;-41
2024/04/17 07:07:16;;;;;;;5.40;1.88;;;;;;;14.43;95.18;91918.84;3704552;31;20568;-41
2024/04/17 07:09:43;;;;;;;8.77;3.65;;;;;;;14.47;94.70;91935.09;3684648;31;20133;-41
2024/04/17 07:12:11;;;;;;;6.47;2.22;;;;;;;14.50;95.03;91927.19;3681713;31;20181;-41
2024/04/17 07:14:38;;;;;;;4.25;1.13;;;;;;;14.46;95.28;91939.66;3679381;31;20125;-41
2024/04/17 07:17:06;;;;;;;5.78;1.75;;;;;;;14.50;94.83;91943.28;3629716;31;20571;-40
2024/04/17 07:19:33;;;;;;;7.15;2.13;;;;;;;14.50;94.84;91937.13;3664388;32;20133;-41
2024/04/17 07:22:00;;;;;;;4.97;1.88;;;;;;;14.39;94.86;91941.22;3618092;32;20158;-41
2024/04/17 07:24:27;;;;;;;4.55;1.10;;;;;;;14.43;95.94;91926.09;3651934;31;20164;-40
2024/04/17 07:26:55;;;;;;;5.70;1.92;;;;;;;14.42;97.05;91941.41;3665283;31;20137;-40
2024/04/17 07:29:22;;;;;;;7.95;2.20;;;;;;;14.58;96.72;91936.41;3647219;32;20141;-41
2024/04/17 07:31:49;;;;;;;5.88;1.83;;;;;;;14.67;95.82;91944.44;3642168;31;20137;-42
2024/04/17 07:34:16;;;;;;;6.38;1.88;;;;;;;14.77;95.69;91941.47;3678093;31;20552;-41
2024/04/17 07:36:46;;;;;;;4.90;1.40;;;;;;;14.69;93.37;91947.63;3668856;31;20217;-43
2024/04/17 07:39:13;;;;;;;4.53;1.30;;;;;;;14.84;94.41;91947.16;3663586;31;20137;-41
2024/04/17 07:41:41;;;;;;;6.25;1.33;;;;;;;14.95;94.42;91968.31;3624138;31;20169;-42
2024/04/17 07:44:09;;;;;;;6.38;1.60;;;;;;;15.03;94.29;91967.53;3624123;31;20178;-41
2024/04/17 07:46:36;;;;;;;5.28;1.92;;;;;;;14.65;91.79;91954.69;3698099;31;20556;-40
2024/04/17 07:49:03;;;;;;;8.43;1.70;;;;;;;14.83;92.88;91963.53;3675229;31;20130;-41
2024/04/17 07:51:30;;;;;;;3.67;1.38;;;;;;;14.88;93.78;91974.13;3650241;31;20138;-42
2024/04/17 07:53:57;;;;;;;9.40;2.45;;;;;;;14.69;97.50;91969.84;3645931;31;20138;-42
2024/04/17 07:56:24;;;;;;;6.72;1.48;;;;;;;14.72;97.85;91963.06;3638528;31;20134;-46
2024/04/17 07:58:51;;;;;;;6.50;4.15;;;;;;;14.67;95.82;91961.31;3682246;31;20134;-42
2024/04/17 08:01:18;;;;;;;7.53;2.90;;;;;;;14.65;98.02;91962.75;3686452;32;20137;-43
2024/04/17 08:03:46;;;;;;;5.80;1.30;;;;;;;14.46;97.97;91965.66;3679988;31;20180;-41
2024/04/17 08:06:13;;;;;;;4.72;1.92;;;;;;;14.55;95.10;91957.66;3677182;31;20464;-43
2024/04/17 08:08:41;;;;;;;4.28;1.17;;;;;;;14.49;95.77;91948.97;3688285;31;20169;-41
2024/04/17 08:11:08;;;;;;;7.68;1.77;;;;;;;14.36;99.11;91964.09;3670370;31;20137;-41
2024/04/17 08:13:37;;;;;;;4.57;1.13;;;;;;;14.45;98.10;91961.41;3652873;31;20133;-41
2024/04/17 08:16:05;;;;;;;5.50;1.13;;;;;;;14.38;97.09;91955.72;3625168;39;20555;-42
2024/04/17 08:18:32;;;;;;;8.55;2.17;;;;;;;14.38;98.71;91953.84;3684153;31;20141;-42
2024/04/17 08:20:59;;;;;;;4.65;1.45;;;;;;;14.39;97.83;91954.63;3695016;31;20495;-41
2024/04/17 08:23:26;;;;;;;4.00;1.73;;;;;;;14.43;95.32;91956.38;3649162;31;20134;-42
2024/04/17 08:25:53;;;;;;;7.10;3.60;;;;;;;14.47;96.36;91962.69;3639027;31;20138;-42
2024/04/17 08:28:20;;;;;;;6.25;1.92;;;;;;;14.49;94.39;91954.34;3683682;31;20165;-41
2024/04/17 08:30:48;;;;;;;5.28;1.70;;;;;;;14.45;93.80;91951.47;3701261;31;20122;-41
2024/04/17 08:33:15;;;;;;;5.97;2.80;;;;;;;14.46;96.22;91952.25;3670789;31;20132;-41
2024/04/17 08:35:42;;;;;;;7.32;2.17;;;;;;;14.58;95.18;91951.69;3670969;31;20511;-44
2024/04/17 08:38:09;;;;;;;9.35;3.42;;;;;;;14.66;96.98;91941.00;3692817;31;20151;-43
2024/04/17 08:40:37;;;;;;;8.13;4.20;;;;;;;14.62;98.39;91929.31;3701393;31;20189;-42
2024/04/17 08:43:04;;;;;;;4.43;1.65;;;;;;;14.63;97.32;91930.88;3675031;31;20125;-41
2024/04/17 08:45:34;;;;;;;7.00;2.97;;;;;;;14.59;98.59;91931.81;3656436;31;20461;-42
2024/04/17 08:48:03;;;;;;;7.57;2.28;;;;;;;14.66;99.23;91908.03;3672977;31;20571;-42
2024/04/17 08:50:31;;;;;;;8.15;3.30;;;;;;;14.73;99.06;91910.25;3691013;31;20225;-41
2024/04/17 08:53:03;;;;;;;7.25;2.38;;;;;;;14.67;96.51;91898.88;3664813;31;20133;-42
2024/04/17 08:55:31;;;;;;;4.93;1.67;;;;;;;14.74;98.04;91896.50;3688786;31;20165;-42
2024/04/17 08:57:59;;;;;;;3.92;1.15;;;;;;;14.80;95.95;91889.09;3637154;31;20138;-42
2024/04/17 09:00:27;;;;;;;4.63;1.77;;;;;;;14.80;96.17;91891.78;3638729;31;20128;-45
2024/04/17 09:02:58;;;;;;;3.25;0.70;;;;;;;14.65;93.46;91876.94;3670086;31;20129;-43
2024/04/17 09:05:27;;;;;;;2.70;1.23;;;;;;;14.80;94.24;91864.97;3685419;31;20137;-43
2024/04/17 09:07:54;;;;;;;;;;;;;;;14.97;97.15;91869.53;3642350;31;20197;-42
2024/04/17 09:10:21;;;;;;;4.32;1.30;;;;;;;15.13;97.24;91864.44;3648923;31;20373;-41
2024/04/17 09:12:48;;;;;;;6.43;1.73;;;;;;;15.21;95.89;91858.28;3696658;31;20138;-41
2024/04/17 09:15:17;;;;;;;4.53;1.70;;;;;;;15.42;97.15;91845.75;3666230;31;20129;-41
2024/04/17 09:17:46;;;;;;;3.95;2.05;;;;;;;15.66;96.32;91837.16;3668669;31;20149;-41
2024/04/17 09:20:14;;;;;;;5.63;2.35;;;;;;;15.92;94.34;91861.25;3627582;31;20184;-42
2024/04/17 09:22:41;;;;;;;4.68;1.77;;;;;;;16.09;88.13;91852.31;3685010;31;20130;-42
2024/04/17 09:25:13;;;;;;;5.72;2.60;;;;;;;16.17;92.02;91863.34;3654090;31;20186;-42
2024/04/17 09:27:41;;;;;;;3.90;1.25;;;;;;;16.47;91.05;91851.47;3687330;31;20142;-41
2024/04/17 09:30:08;;;;;;;6.75;2.38;;;;;;;16.56;90.27;91846.03;3648005;31;20133;-42
2024/04/17 09:32:35;;;;;;;4.00;1.60;;;;;;;16.87;90.59;91839.47;3666388;31;20189;-43
2024/04/17 09:35:03;;;;;;;2.65;0.80;;;;;;;17.10;91.13;91840.69;3644350;31;20133;-40
2024/04/17 09:37:31;;;;;;;4.30;1.52;;;;;;;17.16;91.44;91845.88;3689631;31;20129;-39
2024/04/17 09:40:09;;;;;;;5.18;1.45;;;;;;;17.35;88.07;91825.41;3659063;31;20134;-39
2024/04/17 09:42:42;;;;;;;5.65;2.72;;;;;;;17.43;87.97;91828.31;3706308;31;20134;-40
2024/04/17 09:45:14;;;;;;;5.10;1.50;;;;;;;17.42;91.39;91818.69;3675324;32;20436;-40
2024/04/17 09:47:45;;;;;;;3.50;0.70;;;;;;;17.10;88.59;91821.06;3684592;31;20133;-41
2024/04/17 09:50:21;;;;;;;11.15;3.95;;;;;;;17.23;86.25;91814.59;3642831;31;20184;-43
2024/04/17 09:52:53;;;;;;;4.05;1.30;;;;;;;17.04;89.63;91808.94;3647462;32;20570;-41
2024/04/17 09:55:22;;;;;;;6.07;2.65;;;;;;;17.20;90.11;91817.97;3665820;31;20137;-40
2024/04/17 09:57:50;;;;;;;4.90;1.70;;;;;;;17.19;90.83;91805.59;3653750;31;20129;-42
2024/04/17 10:00:18;;;;;;;4.90;1.50;;;;;;;17.23;91.20;91800.34;3671062;31;20127;-40
2024/04/17 10:02:47;;;;;;;3.78;1.33;;;;;;;17.18;91.52;91798.66;3658775;31;20133;-42
2024/04/17 10:05:16;;;;;;;9.90;3.30;;;;;;;17.42;92.61;91789.06;3665933;31;20138;-43
2024/04/17 10:07:43;;;;;;;10.15;2.42;;;;;;;17.38;91.98;91780.88;3673280;31;20132;-41
2024/04/17 10:10:15;;;;;;;5.45;1.35;;;;;;;17.30;88.92;91782.56;3667066;31;20137;-40
2024/04/17 10:12:46;;;;;;;4.18;1.20;;;;;;;17.12;89.55;91778.47;3644156;31;20133;-40
2024/04/17 10:15:13;;;;;;;3.92;1.60;;;;;;;17.10;89.59;91786.09;3690704;31;20137;-41
2024/04/17 10:17:41;;;;;;;5.07;2.08;;;;;;;17.06;92.26;91785.16;3686804;31;20126;-40
2024/04/17 10:20:28;;;;;;;5.00;1.65;;;;;;;17.14;91.54;91776.22;3697090;31;20126;-40
2024/04/17 10:23:03;;;;;;;6.25;1.85;;;;;;;17.17;86.29;91778.25;3639962;31;20130;-42
2024/04/17 10:25:32;;;;;;;5.85;3.10;;;;;;;17.16;90.08;91763.22;3668623;31;20130;-40
2024/04/17 10:28:11;;;;;;;5.50;2.65;;;;;;;17.17;85.48;91762.09;3677432;31;20650;-44
2024/04/17 10:30:38;;;;;;;6.07;2.00;;;;;;;17.32;83.81;91760.66;3635055;31;20137;-41
2024/04/17 10:33:33;;;;;;;4.60;1.55;;;;;;;17.26;80.88;91740.47;3644586;31;20141;-41
2024/04/17 10:36:02;;;;;;;4.00;0.90;;;;;;;17.41;85.27;91755.16;3654562;31;20491;-42
2024/04/17 10:38:31;;;;;;;5.65;1.40;;;;;;;17.51;82.25;91749.34;3691074;31;20133;-40
2024/04/17 10:41:00;;;;;;;5.07;1.27;;;;;;;17.54;82.44;91744.09;3663815;31;20591;-41
2024/04/17 10:43:32;;;;;;;3.35;1.35;;;;;;;17.43;81.24;91739.47;3622108;39;20133;-41
2024/04/17 10:46:04;;;;;;;4.40;1.55;;;;;;;17.56;79.67;91746.44;3632438;31;20587;-41
2024/04/17 10:48:45;;;;;;;6.22;1.45;;;;;;;17.68;81.87;91732.19;3621230;39;20452;-41
2024/04/17 10:51:17;;;;;;;5.57;1.70;;;;;;;17.64;82.46;91731.28;3637364;31;20142;-41
2024/04/17 10:53:46;;;;;;;4.05;1.55;;;;;;;17.51;82.01;91730.50;3622890;31;20177;-41
2024/04/17 10:56:14;;;;;;;7.63;2.90;;;;;;;17.53;84.23;91731.72;3641956;31;20151;-41
2024/04/17 10:58:42;;;;;;;6.00;1.33;;;;;;;17.42;82.84;91744.06;3640660;31;20138;-40
2024/04/17 11:01:12;;;;;;;3.45;1.00;;;;;;;17.55;83.68;91734.09;3623047;32;20130;-41
2024/04/17 11:03:39;;;;;;;8.43;2.60;;;;;;;17.38;82.53;91737.00;3685010;31;20145;-40
2024/04/17 11:06:08;;;;;;;9.30;1.20;;;;;;;17.50;79.67;91712.78;3650834;31;20133;-40
2024/04/17 11:08:40;;;;;;;5.63;2.03;;;;;;;17.44;83.71;91716.81;3617052;32;20189;-41
2024/04/17 11:11:10;;;;;;;5.75;1.50;;;;;;;17.52;89.32;91727.47;3621951;39;20583;-42
2024/04/17 11:13:43;;;;;;;4.82;1.50;;;;;;;17.54;89.40;91730.63;3693795;31;20134;-41
2024/04/17 11:16:12;;;;;;;14.15;7.97;;;;;;;17.85;93.59;91723.13;3690682;31;20579;-41
2024/04/17 11:18:41;;;;;;;7.78;2.30;;;;;;;18.05;84.99;91713.31;3662415;31;20592;-41
2024/04/17 11:21:11;;;;;;;9.45;4.15;;;;;;;18.33;82.71;91703.38;3651782;31;20125;-41
2024/04/17 11:23:42;;;;;;;8.75;4.10;;;;;;;18.42;78.45;91695.13;3628373;31;20137;-40
2024/04/17 11:26:11;;;;;;;6.35;1.55;;;;;;;18.48;76.69;91677.56;3695118;31;20146;-40
2024/04/17 11:28:45;;;;;;;8.13;1.55;;;;;;;18.58;75.45;91678.97;3670416;31;20137;-40
2024/04/17 11:31:13;;;;;;;4.65;1.30;;;;;;;18.74;74.67;91679.81;3610816;32;20464;-41
2024/04/17 11:33:40;;;;;;;;;;;;;;;18.91;73.02;91684.13;3683363;32;20134;-40
2024/04/17 11:36:09;;;;;;;6.53;1.55;;;;;;;19.12;72.83;91685.81;3642013;31;20007;-40
2024/04/17 11:38:36;;;;;;;6.75;1.45;;;;;;;19.24;71.83;91672.22;3651522;31;20141;-40